Pamlico — WX6900 — position and weather

sailwx.info

Track history (hours):
 
Tides and Currents Weather Stations Pressure Air Temp Water Temp Dewpoint Dewpoint Depression Visibility Wind Speed Wind Dir Waves Ship Positions

Pamlico

Owner: PCS Phosphate, AURORA, NC. More information available from US FCC via Universal Licensing System and Coast Guard Vessel Documentation Center.

Last reported at 2014-Oct-21 12:05 UTC. Time now 2014-Oct-23 20:42 UTC.
Position N 35°08' W 076°30'.

Length 30 m; draft 3 m.

MMSI: 367361220.

Date/timePositionNaut miles runAvg speedWind from/ knotsBaromVisibWave heightAir tempDewpointWater temp
2014-Oct-21 12:05N 35°08' W 076°30'4 8.1
2014-Oct-21 11:33N 35°04' W 076°33'8 8.4
2014-Oct-21 10:32N 34°59' W 076°41'6 6.4
2014-Oct-21 09:33N 34°53' W 076°41'8 7.6
2014-Oct-21 08:33N 34°45' W 076°40'2 2.2
2014-Oct-21 07:33N 34°43' W 076°42'5 4.5
2014-Oct-21 06:33N 34°48' W 076°41'6 6.4
2014-Oct-21 05:33N 34°54' W 076°40'6 5.7
2014-Oct-21 04:33N 34°60' W 076°41'8 7.4
2014-Oct-21 03:29N 35°04' W 076°33'107 2.5
2014-Oct-19 09:16N 36°50' W 076°16'0 0.0
2014-Oct-19 08:25N 36°50' W 076°16'0 0.0
2014-Oct-19 07:18N 36°50' W 076°16'0 0.0
2014-Oct-19 06:33N 36°50' W 076°16'0 0.0
2014-Oct-19 05:33N 36°50' W 076°16'0 0.0
2014-Oct-19 04:24N 36°50' W 076°16'0 0.2
2014-Oct-19 02:27N 36°50' W 076°17'105 4.2
2014-Oct-18 01:18N 35°06' W 076°31'8 8.0
2014-Oct-18 00:16N 35°01' W 076°39'4 6.1
2014-Oct-17 23:33N 34°57' W 076°40'7 6.8
2014-Oct-17 22:33N 34°50' W 076°41'7 6.6
2014-Oct-17 21:33N 34°43' W 076°42'0 0.1
2014-Oct-17 20:33N 34°43' W 076°42'5 5.4
2014-Oct-17 19:33N 34°49' W 076°41'5 5.0
2014-Oct-17 18:33N 34°54' W 076°41'14 5.9
2014-Oct-17 16:07N 35°06' W 076°32'3 0.1
2014-Oct-16 17:28N 35°04' W 076°34'8 8.4
2014-Oct-16 16:33N 34°59' W 076°41'6 5.7
2014-Oct-16 15:33N 34°53' W 076°41'6 5.6
2014-Oct-16 14:33N 34°48' W 076°41'5 4.6
2014-Oct-16 13:33N 34°43' W 076°42'2 2.5
2014-Oct-16 12:33N 34°46' W 076°40'6 6.4
2014-Oct-16 11:33N 34°52' W 076°41'5 5.3
2014-Oct-16 10:33N 34°57' W 076°40'6 5.6
2014-Oct-16 09:33N 35°02' W 076°37'7 7.2
2014-Oct-16 08:33N 35°07' W 076°31'11 0.4
2014-Oct-15 04:27N 34°60' W 076°41'6 6.3
2014-Oct-15 03:33N 34°54' W 076°40'6 6.0
2014-Oct-15 02:33N 34°48' W 076°41'5 5.0
2014-Oct-15 01:33N 34°43' W 076°42'3 2.7
2014-Oct-15 00:33N 34°46' W 076°41'6 6.3
2014-Oct-14 23:33N 34°52' W 076°41'5 5.3
2014-Oct-14 22:32N 34°57' W 076°41'  
2014-Oct-12 15:08N 35°01' W 076°39'4 6.4
2014-Oct-12 14:33N 34°58' W 076°41'6 5.7
2014-Oct-12 13:33N 34°52' W 076°41'6 6.4
2014-Oct-12 12:33N 34°46' W 076°40'2 2.5
2014-Oct-12 11:33N 34°43' W 076°42'0 0.1
2014-Oct-12 10:33N 34°43' W 076°42'2 2.4
2014-Oct-12 09:33N 34°45' W 076°40'7 6.8
2014-Oct-12 08:33N 34°52' W 076°42'6 5.8
2014-Oct-12 07:33N 34°58' W 076°41'  
Track history (hours):
 
Tides and Currents Weather Stations Pressure Air Temp Water Temp Dewpoint Dewpoint Depression Visibility Wind Speed Wind Dir Waves Ship Positions

Pamlico

Owner: PCS Phosphate, AURORA, NC. More information available from US FCC via Universal Licensing System and Coast Guard Vessel Documentation Center.

Last reported at 2014-Oct-21 12:05 UTC. Time now 2014-Oct-23 20:42 UTC.
Position N 35°08' W 076°30'.

Length 30 m; draft 3 m.

MMSI: 367361220.

Date/timePositionNaut miles runAvg speedWind from/ knotsBaromVisibWave heightAir tempDewpointWater temp
2014-Oct-21 12:05N 35°08' W 076°30'4 8.1
2014-Oct-21 11:33N 35°04' W 076°33'8 8.4
2014-Oct-21 10:32N 34°59' W 076°41'6 6.4
2014-Oct-21 09:33N 34°53' W 076°41'8 7.6
2014-Oct-21 08:33N 34°45' W 076°40'2 2.2
2014-Oct-21 07:33N 34°43' W 076°42'5 4.5
2014-Oct-21 06:33N 34°48' W 076°41'6 6.4
2014-Oct-21 05:33N 34°54' W 076°40'6 5.7
2014-Oct-21 04:33N 34°60' W 076°41'8 7.4
2014-Oct-21 03:29N 35°04' W 076°33'107 2.5
2014-Oct-19 09:16N 36°50' W 076°16'0 0.0
2014-Oct-19 08:25N 36°50' W 076°16'0 0.0
2014-Oct-19 07:18N 36°50' W 076°16'0 0.0
2014-Oct-19 06:33N 36°50' W 076°16'0 0.0
2014-Oct-19 05:33N 36°50' W 076°16'0 0.0
2014-Oct-19 04:24N 36°50' W 076°16'0 0.2
2014-Oct-19 02:27N 36°50' W 076°17'105 4.2
2014-Oct-18 01:18N 35°06' W 076°31'8 8.0
2014-Oct-18 00:16N 35°01' W 076°39'4 6.1
2014-Oct-17 23:33N 34°57' W 076°40'7 6.8
2014-Oct-17 22:33N 34°50' W 076°41'7 6.6
2014-Oct-17 21:33N 34°43' W 076°42'0 0.1
2014-Oct-17 20:33N 34°43' W 076°42'5 5.4
2014-Oct-17 19:33N 34°49' W 076°41'5 5.0
2014-Oct-17 18:33N 34°54' W 076°41'14 5.9
2014-Oct-17 16:07N 35°06' W 076°32'3 0.1
2014-Oct-16 17:28N 35°04' W 076°34'8 8.4
2014-Oct-16 16:33N 34°59' W 076°41'6 5.7
2014-Oct-16 15:33N 34°53' W 076°41'6 5.6
2014-Oct-16 14:33N 34°48' W 076°41'5 4.6
2014-Oct-16 13:33N 34°43' W 076°42'2 2.5
2014-Oct-16 12:33N 34°46' W 076°40'6 6.4
2014-Oct-16 11:33N 34°52' W 076°41'5 5.3
2014-Oct-16 10:33N 34°57' W 076°40'6 5.6
2014-Oct-16 09:33N 35°02' W 076°37'7 7.2
2014-Oct-16 08:33N 35°07' W 076°31'11 0.4
2014-Oct-15 04:27N 34°60' W 076°41'6 6.3
2014-Oct-15 03:33N 34°54' W 076°40'6 6.0
2014-Oct-15 02:33N 34°48' W 076°41'5 5.0
2014-Oct-15 01:33N 34°43' W 076°42'3 2.7
2014-Oct-15 00:33N 34°46' W 076°41'6 6.3
2014-Oct-14 23:33N 34°52' W 076°41'5 5.3
2014-Oct-14 22:32N 34°57' W 076°41'  
2014-Oct-12 15:08N 35°01' W 076°39'4 6.4
2014-Oct-12 14:33N 34°58' W 076°41'6 5.7
2014-Oct-12 13:33N 34°52' W 076°41'6 6.4
2014-Oct-12 12:33N 34°46' W 076°40'2 2.5
2014-Oct-12 11:33N 34°43' W 076°42'0 0.1
2014-Oct-12 10:33N 34°43' W 076°42'2 2.4
2014-Oct-12 09:33N 34°45' W 076°40'7 6.8
2014-Oct-12 08:33N 34°52' W 076°42'6 5.8
2014-Oct-12 07:33N 34°58' W 076°41'  

Dump ship's entire track history